Terminal Aerodrome Forecast
Issued by NWS

Home | Current Version | Previous Version | Text Only | Print | Product List | Glossary On
Versions: 1 2 3 4 5 6 7 8 9 10 11 12 13 14 15 16 17
000
FTUS41 KGYX 031134
TAFPSM
TAF
KPSM 031134Z 0312/0412 28006KT P6SM SKC
     FM031900 17006KT P6SM BKN100
     FM032300 17009KT 3SM -SN BR OVC015
      TEMPO 0402/0406 3/4SM -SN BR OVC006
     FM040900 22010KT 5SM -SHRA BR OVC015=

USA.gov is the U.S. government's official web portal to all federal, state and local government web resources and services.